METAR v bližini

 

LJLJ - Ljubljana/Brnik, Slovenia
Oddaljenost od postaje: Z 41km
Podatki zajeti: 24/04/2018 16:00
Rahlo oblačno
Rahlo oblačno
 Veter iz smeri V
Veter: V 7 km/h
Temperatura: 23°C
Rosišče: 11°C
Vlažnost: 47%
Tlak: 1016 hPa
Oblačnost: Rahlo oblačno
Vidljivost: 10 km
Podrobnosti o oblakih: Rahlo oblačno 2134 m
2018/04/24 14:00 LJLJ 241400Z 08004KT 010V100 9999 FEW070 23/11 Q1016 NOSIG
LJMB - Maribor, Slovenia
Oddaljenost od postaje: SV 63km
Podatki zajeti: 24/04/2018 16:00
Delno oblačno
Delno oblačno
 Veter iz smeri JJZ
Veter: JJZ 4 km/h
Temperatura: 22°C
Rosišče: 10°C
Vlažnost: 47%
Tlak: 1016 hPa
Oblačnost: Delno oblačno
Vidljivost: 10 km
Podrobnosti o oblakih: Rahlo oblačno 914 m
Delno oblačno 2621 m
2018/04/24 14:00 LJMB 241400Z 21002KT 9999 FEW030 SCT086 22/10 Q1016
 
LJPZ - Portoroz, Slovenia
Oddaljenost od postaje: JZ 130km
Podatki zajeti: 24/04/2018 16:00
Jasno
Jasno
 Veter iz smeri Z
Veter: Z 7 km/h
Temperatura: 24°C
Rosišče: 8°C
Vlažnost: 36%
Tlak: 1016 hPa
Stanje: Jasno
Vidljivost: večja od 10 km
2018/04/24 14:00 LJPZ 241400Z 26004KT 230V330 CAVOK 24/08 Q1016
LJCE - Cerklje, Slovenia
Oddaljenost od postaje: VJV 49km
Podatki zajeti: 24/04/2018 16:00
Delno oblačno
Delno oblačno
 Veter iz smeri J
Veter: J 7 km/h
Temperatura: 24°C
Rosišče: 12°C
Vlažnost: 47%
Tlak: 1016 hPa
Oblačnost: Delno oblačno
Vidljivost: 10 km
2018/04/24 14:00 LJCE 241400Z AUTO 17004KT 140V240 9999 NSC 24/12 Q1016
 
LDZA - Zagreb/Pleso, Croatia
Oddaljenost od postaje: VJV 96km
Podatki zajeti: 24/04/2018 16:00
Jasno
Jasno
 Veter iz smeri spremenljiv
Veter: spremenljiv 7 km/h
Temperatura: 25°C
Rosišče: 11°C
Vlažnost: 42%
Tlak: 1016 hPa
Stanje: Jasno
Vidljivost: večja od 10 km
2018/04/24 14:00 LDZA 241400Z VRB04KT CAVOK 25/11 Q1016 NOSIG
LDRI - Rijeka/Omisalj, Croatia
Oddaljenost od postaje: JJZ 109km
Podatki zajeti: 24/04/2018 16:00
Rahlo oblačno
Rahlo oblačno
 Veter iz smeri SZ
Veter: SZ 9 km/h
Temperatura: 22°C
Rosišče: 11°C
Vlažnost: 50%
Tlak: 1017 hPa
Oblačnost: Rahlo oblačno
Vidljivost: 10 km
Podrobnosti o oblakih: Rahlo oblačno 1524 m
2018/04/24 14:00 LDRI 241400Z 32005KT 9999 FEW050 22/11 Q1017
 
LDPL - Pula, Croatia
Oddaljenost od postaje: JJZ 164km
Podatki zajeti: 24/04/2018 16:00
Jasno
Jasno
 Veter iz smeri spremenljiv
Veter: spremenljiv 6 km/h
Temperatura: 23°C
Rosišče: 13°C
Vlažnost: 53%
Tlak: 1017 hPa
Stanje: Jasno
Vidljivost: večja od 10 km
2018/04/24 14:00 LDPL 241400Z VRB03KT CAVOK 23/13 Q1017 NOSIG
LOWK - Klagenfurt(Civ/M, Austria
Oddaljenost od postaje: SZ 76km
Podatki zajeti: 24/04/2018 16:20
Rahlo oblačno
Rahlo oblačno
 Veter iz smeri VSV
Veter: VSV 6 km/h
Temperatura: 23°C
Rosišče: 9°C
Vlažnost: 41%
Tlak: 1016 hPa
Oblačnost: Rahlo oblačno
Vidljivost: 10 km
Podrobnosti o oblakih: Rahlo oblačno 1829 m
2018/04/24 14:20 LOWK 241420Z 06003KT 340V120 9999 FEW060 23/09 Q1016 NOSIG
 
LOWG - Graz (mil/Civ), Austria
Oddaljenost od postaje: SSV 100km
Podatki zajeti: 24/04/2018 16:20
Pretežno oblačno
Pretežno oblačno
 Veter iz smeri JJV
Veter: JJV 7 km/h
Temperatura: 21°C
Rosišče: 12°C
Vlažnost: 57%
Tlak: 1017 hPa
Oblačnost: Pretežno oblačno
Vidljivost: 10 km
Podrobnosti o oblakih: Rahlo oblačno 1829 m
Pretežno oblačno 3048 m
2018/04/24 14:20 LOWG 241420Z 15004KT 110V200 9999 FEW060 BKN100 21/12 Q1017 NOSIG
LOWZ - Zell Am See, Austria
Oddaljenost od postaje: SZ 211km
Podatki zajeti: 31/12/2016 17:00
Ni posodobljen
Jasno
Jasno
 Veter iz smeri spremenljiv
Veter: spremenljiv 4 km/h
Temperatura: -4°C
Rosišče: -7°C
Vlažnost: 80%
Tlak: 1031 hPa
Oblačnost: Jasno
2016/12/31 16:00 LOWZ 311600Z VRB02KT 50KM SKC M04/M07 Q1031
 
LOAN - Wr.neustadt East, Austria
Oddaljenost od postaje: SSV 212km
Podatki zajeti: 24/04/2018 16:00
Delno oblačno
Delno oblačno
 Veter iz smeri Z
Veter: Z 22 km/h
Oblačnost: Delno oblačno
Podrobnosti o oblakih: Rahlo oblačno 1219 m
Delno oblačno 2743 m
2018/04/24 14:00 LOAN 241400Z 28012KT 40KM FEW040CU SCT090AC
LIPQ - Ronchi Legionari, Italy
Oddaljenost od postaje: JZ 35km
Podatki zajeti: 24/04/2018 16:20
Jasno
Jasno
 Veter iz smeri JJZ
Veter: JJZ 13 km/h
Temperatura: 24°C
Rosišče: 8°C
Vlažnost: 36%
Tlak: 1016 hPa
Stanje: Jasno
Vidljivost: večja od 10 km
2018/04/24 14:20 LIPQ 241420Z 21007KT 180V240 CAVOK 24/08 Q1016
 
LIVT - Trieste, Italy
Oddaljenost od postaje: ZJZ 109km
Podatki zajeti: 24/04/2018 13:55
Ni posodobljen
Jasno
Jasno
 Veter iz smeri calm
Veter: Tišina
Temperatura: 21°C
Rosišče: 12°C
Vlažnost: 57%
Tlak: 1017 hPa
Stanje: Jasno
Vidljivost: večja od 10 km
2018/04/24 11:55 LIVT 241155Z 00000KT CAVOK 21/12 Q1017 RMK SKC QUK 0 QUL 0 VIS MAR 20 KM VIS MIN 9999
LIVO - Tarvisio, Italy
Oddaljenost od postaje: SSZ 49km
Podatki zajeti: 24/04/2018 13:55
Ni posodobljen
Delno oblačno
Delno oblačno
 Veter iz smeri V
Veter: V 7 km/h
Temperatura: 19°C
Rosišče: 11°C
Vlažnost: 60%
Tlak: 1018 hPa
Oblačnost: Delno oblačno
Vidljivost: 10 km
Podrobnosti o oblakih: Delno oblačno 1067 m
2018/04/24 11:55 LIVO 241155Z 09004KT 9999 SCT035 19/11 Q1018 RMK SCT VIS MIN 9999
 
LIPZ - Venezia/Tessera, Italy
Oddaljenost od postaje: ZJZ 217km
Podatki zajeti: 24/04/2018 16:20
Jasno
Jasno
 Veter iz smeri J
Veter: J 9 km/h
Temperatura: 22°C
Rosišče: 13°C
Vlažnost: 57%
Tlak: 1016 hPa
Stanje: Jasno
Vidljivost: večja od 10 km
2018/04/24 14:20 LIPZ 241420Z 18005KT CAVOK 22/13 Q1016 NOSIG
LHSM - Balaton, Hungary
Oddaljenost od postaje: VSV 177km
Podatki zajeti: 24/04/2018 15:45
Rahlo oblačno
Rahlo oblačno
 Veter iz smeri SZ
Veter: SZ 6 km/h
Temperatura: 23°C
Rosišče: 12°C
Vlažnost: 50%
Tlak: 1017 hPa
Oblačnost: Rahlo oblačno
Vidljivost: 10 km
Podrobnosti o oblakih: Rahlo oblačno 1311 m
2018/04/24 13:45 LHSM 241345Z 32003KT 9999 FEW043 23/12 Q1017 NOSIG